createdAt,value
2017-09-11T00:01:37.764Z,8.13
2017-09-11T00:04:06.627Z,8.77
2017-09-11T00:06:36.132Z,8.90
2017-09-11T00:09:04.865Z,9.73
2017-09-11T00:11:33.785Z,8.70
2017-09-11T00:14:03.204Z,10.10
2017-09-11T00:16:31.848Z,9.17
2017-09-11T00:19:00.714Z,9.10
2017-09-11T00:21:30.392Z,8.13
2017-09-11T00:24:01.020Z,9.63
2017-09-11T00:26:29.687Z,9.93
2017-09-11T00:28:57.902Z,9.97
2017-09-11T00:31:27.281Z,9.70
2017-09-11T00:33:56.116Z,9.13
2017-09-11T00:36:24.243Z,9.80
2017-09-11T00:38:53.526Z,9.60
2017-09-11T00:41:22.557Z,8.97
2017-09-11T00:43:51.393Z,17.10
2017-09-11T00:46:18.957Z,8.27
2017-09-11T00:48:48.964Z,8.03
2017-09-11T00:51:17.519Z,9.87
2017-09-11T00:53:45.058Z,8.87
2017-09-11T00:56:13.868Z,9.60
2017-09-11T00:58:43.305Z,10.80
2017-09-11T01:01:15.846Z,8.30
2017-09-11T01:03:44.722Z,9.67
2017-09-11T01:06:13.770Z,6.80
2017-09-11T01:08:44.372Z,9.03
2017-09-11T01:11:13.429Z,7.97
2017-09-11T01:13:42.271Z,7.67
2017-09-11T01:16:13.145Z,6.50
2017-09-11T01:18:41.841Z,9.77
2017-09-11T01:21:10.903Z,8.83
2017-09-11T01:23:39.739Z,8.90
2017-09-11T01:26:07.844Z,7.83
2017-09-11T01:28:38.753Z,8.80
2017-09-11T01:31:07.856Z,9.50
2017-09-11T01:33:36.933Z,8.43
2017-09-11T01:36:05.111Z,10.30
2017-09-11T01:38:34.609Z,9.87
2017-09-11T01:41:03.499Z,7.37
2017-09-11T01:43:32.453Z,9.27
2017-09-11T01:46:02.818Z,7.40
2017-09-11T01:48:30.888Z,8.00
2017-09-11T01:50:59.492Z,7.73
2017-09-11T01:53:28.665Z,9.93
2017-09-11T01:55:57.122Z,9.07
2017-09-11T01:58:26.952Z,8.37
2017-09-11T02:00:54.476Z,9.27
2017-09-11T02:03:23.417Z,10.73
2017-09-11T02:05:52.228Z,15.40
2017-09-11T02:08:20.243Z,9.97
2017-09-11T02:10:47.736Z,9.40
2017-09-11T02:13:15.914Z,10.23
2017-09-11T02:15:45.261Z,13.70
2017-09-11T02:18:14.486Z,8.90
2017-09-11T02:20:42.915Z,12.43
2017-09-11T02:23:11.879Z,10.67
2017-09-11T02:25:40.097Z,10.40
2017-09-11T02:28:08.700Z,12.10
2017-09-11T02:30:38.217Z,10.77
2017-09-11T02:33:06.523Z,10.60
2017-09-11T02:35:35.631Z,10.53
2017-09-11T02:38:04.467Z,10.90
2017-09-11T02:40:34.271Z,12.67
2017-09-11T02:43:03.890Z,12.40
2017-09-11T02:45:33.640Z,15.07
2017-09-11T02:48:02.280Z,13.53
2017-09-11T02:50:30.888Z,13.07
2017-09-11T02:53:00.059Z,12.03
2017-09-11T02:55:28.919Z,14.70
2017-09-11T02:57:56.999Z,15.03
2017-09-11T03:00:27.170Z,14.50
2017-09-11T03:02:57.263Z,15.30
2017-09-11T03:05:25.955Z,11.93
2017-09-11T03:07:55.193Z,13.43
2017-09-11T03:10:24.235Z,13.50
2017-09-11T03:12:51.857Z,12.00
2017-09-11T03:15:20.291Z,15.10
2017-09-11T03:17:49.241Z,12.77
2017-09-11T03:20:18.128Z,13.67
2017-09-11T03:22:46.286Z,14.17
2017-09-11T03:25:14.406Z,13.03
2017-09-11T03:27:43.293Z,13.70
2017-09-11T03:30:12.397Z,13.07
2017-09-11T03:32:41.100Z,13.97
2017-09-11T03:35:09.419Z,12.57
2017-09-11T03:37:38.114Z,17.40
2017-09-11T03:40:06.373Z,13.60
2017-09-11T03:42:36.695Z,13.40
2017-09-11T03:45:07.502Z,13.90
2017-09-11T03:47:35.606Z,16.40
2017-09-11T03:50:04.785Z,14.27
2017-09-11T03:52:35.535Z,15.03
2017-09-11T03:55:05.881Z,13.43
2017-09-11T03:57:33.995Z,13.90
2017-09-11T04:00:02.445Z,13.43
2017-09-11T04:02:31.995Z,13.80
2017-09-11T04:05:01.616Z,16.97
2017-09-11T04:07:30.808Z,12.97
2017-09-11T04:10:00.642Z,15.23
2017-09-11T04:12:29.293Z,14.90
2017-09-11T04:15:01.769Z,15.10
2017-09-11T04:17:32.134Z,16.07
2017-09-11T04:20:01.223Z,14.13
2017-09-11T04:22:30.468Z,13.10
2017-09-11T04:24:59.992Z,29.67
2017-09-11T04:27:28.088Z,27.03
2017-09-11T04:29:58.578Z,22.87
2017-09-11T04:32:27.939Z,19.40
2017-09-11T04:34:56.830Z,20.20
2017-09-11T04:37:25.664Z,15.60
2017-09-11T04:39:55.071Z,31.40
2017-09-11T04:42:23.278Z,20.90
2017-09-11T04:44:53.667Z,14.23
2017-09-11T04:47:22.679Z,19.83
2017-09-11T04:49:51.281Z,20.07
2017-09-11T04:52:21.274Z,22.37
2017-09-11T04:54:53.092Z,16.67
2017-09-11T04:57:23.138Z,14.03
2017-09-11T04:59:51.669Z,15.47
2017-09-11T05:02:20.270Z,16.47
2017-09-11T05:04:48.987Z,14.77
2017-09-11T05:07:17.833Z,12.63
2017-09-11T05:09:46.211Z,19.23
2017-09-11T05:12:15.723Z,14.27
2017-09-11T05:14:45.426Z,17.93
2017-09-11T05:17:15.007Z,13.03
2017-09-11T05:19:44.556Z,13.67
2017-09-11T05:22:13.370Z,13.20
2017-09-11T05:24:42.407Z,12.07
2017-09-11T05:27:11.939Z,13.20
2017-09-11T05:29:40.630Z,12.63
2017-09-11T05:32:09.668Z,14.43
2017-09-11T05:47:33.790Z,13.80
2017-09-11T05:50:02.512Z,21.23
2017-09-11T05:52:32.088Z,17.97
2017-09-11T05:55:00.922Z,15.73
2017-09-11T05:57:31.201Z,18.83
2017-09-11T06:00:00.469Z,16.70
2017-09-11T06:02:31.083Z,15.07
2017-09-11T06:05:00.503Z,14.57
2017-09-11T06:07:29.189Z,13.00
2017-09-11T06:09:59.390Z,12.83
2017-09-11T06:12:28.510Z,14.30
2017-09-11T06:14:56.797Z,18.80
2017-09-11T06:17:25.621Z,18.87
2017-09-11T06:19:53.931Z,13.53
2017-09-11T06:22:23.042Z,12.20
2017-09-11T06:24:54.222Z,12.37
2017-09-11T06:27:23.737Z,12.53
2017-09-11T06:29:53.064Z,12.50
2017-09-11T06:32:21.598Z,13.83
2017-09-11T06:34:50.468Z,14.80
2017-09-11T06:37:18.806Z,20.93
2017-09-11T06:39:46.969Z,13.43
2017-09-11T06:42:15.859Z,16.77
2017-09-11T06:44:44.684Z,11.93
2017-09-11T06:47:12.984Z,11.80
2017-09-11T06:49:41.389Z,12.10
2017-09-11T06:52:09.630Z,15.13
2017-09-11T06:54:39.691Z,11.37
2017-09-11T06:57:09.048Z,13.50
2017-09-11T06:59:40.234Z,11.83
2017-09-11T07:02:09.723Z,16.90
2017-09-11T07:04:38.538Z,15.60
2017-09-11T07:07:07.659Z,23.50
2017-09-11T07:09:37.806Z,23.33
2017-09-11T07:12:18.698Z,13.17
2017-09-11T07:14:47.818Z,16.03
2017-09-11T07:17:17.509Z,21.43
2017-09-11T07:19:46.911Z,20.60
2017-09-11T07:22:16.000Z,19.23
2017-09-11T07:24:45.393Z,21.50
2017-09-11T07:27:14.299Z,25.70
2017-09-11T07:29:44.228Z,19.40
2017-09-11T07:32:14.061Z,19.83
2017-09-11T07:34:43.486Z,24.70
2017-09-11T07:37:13.449Z,17.03
2017-09-11T07:39:42.101Z,21.93
2017-09-11T07:42:11.472Z,22.00
2017-09-11T07:44:39.630Z,19.43
2017-09-11T07:47:08.199Z,20.67
2017-09-11T07:49:38.328Z,19.80
2017-09-11T07:52:08.275Z,19.17
2017-09-11T07:54:37.562Z,20.13
2017-09-11T07:57:06.822Z,18.50
2017-09-11T07:59:35.434Z,23.87
2017-09-11T08:02:03.377Z,20.53
2017-09-11T08:04:33.456Z,39.17
2017-09-11T08:07:03.333Z,28.33
2017-09-11T08:09:32.078Z,25.03
2017-09-11T08:12:01.828Z,30.60
2017-09-11T08:14:31.315Z,31.77
2017-09-11T08:17:00.153Z,31.97
2017-09-11T08:19:28.530Z,29.17
2017-09-11T08:21:57.480Z,34.07
2017-09-11T08:24:26.350Z,28.50
2017-09-11T08:26:54.659Z,31.90
2017-09-11T08:29:24.734Z,20.83
2017-09-11T08:31:54.964Z,26.00
2017-09-11T08:34:25.422Z,36.67
2017-09-11T08:36:55.288Z,32.80
2017-09-11T08:39:23.469Z,27.23
2017-09-11T08:41:52.820Z,59.60
2017-09-11T08:44:21.162Z,39.80
2017-09-11T08:46:54.923Z,40.13
2017-09-11T08:49:25.622Z,44.63
2017-09-11T08:51:54.921Z,46.47
2017-09-11T08:54:25.146Z,32.60
2017-09-11T08:56:55.075Z,20.20
2017-09-11T08:59:24.134Z,22.37
2017-09-11T09:01:51.670Z,27.27
2017-09-11T09:04:19.709Z,31.57
2017-09-11T09:06:49.512Z,20.27
2017-09-11T09:09:19.276Z,24.20
2017-09-11T09:11:48.846Z,92.57
2017-09-11T09:14:17.531Z,46.27
2017-09-11T09:16:45.676Z,35.77
2017-09-11T09:19:15.187Z,30.40
2017-09-11T09:21:45.874Z,22.40
2017-09-11T09:24:14.789Z,20.27
2017-09-11T09:26:43.248Z,15.60
2017-09-11T09:29:11.534Z,17.03
2017-09-11T09:31:40.683Z,16.97
2017-09-11T09:34:10.373Z,14.33
2017-09-11T09:36:38.404Z,13.00
2017-09-11T09:39:07.812Z,11.93
2017-09-11T09:41:38.217Z,14.00
2017-09-11T09:44:06.960Z,15.13
2017-09-11T09:46:36.875Z,13.23
2017-09-11T09:49:05.038Z,12.83
2017-09-11T09:51:35.201Z,13.73
2017-09-11T09:54:03.834Z,8.83
2017-09-11T09:56:33.223Z,17.77
2017-09-11T09:59:03.209Z,19.70
2017-09-11T10:01:32.029Z,27.10
2017-09-11T10:04:01.057Z,19.30
2017-09-11T10:06:30.320Z,24.40
2017-09-11T10:09:00.501Z,20.03
2017-09-11T10:11:30.065Z,22.20
2017-09-11T10:13:59.388Z,19.47
2017-09-11T10:16:27.661Z,14.87
2017-09-11T10:18:56.517Z,22.33
2017-09-11T10:21:25.954Z,21.40
2017-09-11T10:23:54.671Z,22.00
2017-09-11T10:26:24.129Z,15.03
2017-09-11T10:28:53.549Z,21.80
2017-09-11T10:31:21.838Z,21.07
2017-09-11T10:33:51.158Z,25.13
2017-09-11T10:36:19.942Z,22.77
2017-09-11T10:38:48.013Z,15.70
2017-09-11T10:41:16.901Z,18.03
2017-09-11T10:43:47.044Z,26.80
2017-09-11T10:46:15.234Z,15.40
2017-09-11T10:48:44.093Z,19.80
2017-09-11T10:51:12.902Z,20.77
2017-09-11T10:53:41.726Z,19.90
2017-09-11T10:56:11.111Z,25.40
2017-09-11T10:58:41.163Z,26.03
2017-09-11T11:01:09.440Z,28.13
2017-09-11T11:03:38.113Z,21.73
2017-09-11T11:06:07.425Z,21.07
2017-09-11T11:08:38.269Z,19.00
2017-09-11T11:11:06.947Z,20.23
2017-09-11T11:13:35.871Z,18.43
2017-09-11T11:16:04.345Z,21.90
2017-09-11T11:18:33.579Z,17.30
2017-09-11T11:21:03.025Z,33.50
2017-09-11T11:23:31.884Z,24.53
2017-09-11T11:26:01.168Z,21.50
2017-09-11T11:28:30.177Z,35.00
2017-09-11T11:30:58.962Z,26.70
2017-09-11T11:33:27.816Z,28.83
2017-09-11T11:35:56.778Z,15.70
2017-09-11T11:38:25.142Z,45.03
2017-09-11T11:40:55.451Z,50.63
2017-09-11T11:43:25.818Z,29.90
2017-09-11T11:45:55.813Z,25.23
2017-09-11T11:48:24.424Z,21.97
2017-09-11T11:50:52.576Z,23.20
2017-09-11T11:53:23.291Z,21.50
2017-09-11T11:55:51.868Z,17.90
2017-09-11T11:58:20.644Z,22.13
2017-09-11T12:00:50.629Z,24.33
2017-09-11T12:03:19.416Z,20.57
2017-09-11T12:05:48.033Z,32.20
2017-09-11T12:08:18.189Z,30.33
2017-09-11T12:10:47.704Z,24.03
2017-09-11T12:13:15.813Z,19.47
2017-09-11T12:15:46.047Z,22.67
2017-09-11T12:18:15.315Z,18.70
2017-09-11T12:20:44.168Z,20.43
2017-09-11T12:23:12.161Z,18.87
2017-09-11T12:25:42.802Z,25.10
2017-09-11T12:28:11.637Z,48.27
2017-09-11T12:30:42.904Z,36.43
2017-09-11T12:33:12.407Z,34.17
2017-09-11T12:35:40.560Z,26.07
2017-09-11T12:38:10.924Z,30.17
2017-09-11T12:40:40.351Z,40.93
2017-09-11T12:43:07.906Z,52.77
2017-09-11T12:45:36.280Z,30.30
2017-09-11T12:48:06.711Z,22.10
2017-09-11T12:50:36.065Z,24.43
2017-09-11T12:53:04.947Z,30.87
2017-09-11T12:55:34.748Z,30.33
2017-09-11T12:58:04.519Z,33.90
2017-09-11T13:00:34.996Z,33.53
2017-09-11T13:03:04.979Z,31.17
2017-09-11T13:05:34.832Z,26.80
2017-09-11T13:08:03.840Z,25.07
2017-09-11T13:10:33.068Z,34.67
2017-09-11T13:13:03.860Z,23.73
2017-09-11T13:15:33.544Z,27.50
2017-09-11T13:18:02.948Z,44.23
2017-09-11T13:20:32.036Z,29.53
2017-09-11T13:23:02.949Z,46.57
2017-09-11T13:25:32.259Z,36.03
2017-09-11T13:28:01.167Z,42.67
2017-09-11T13:30:29.905Z,33.77
2017-09-11T13:32:59.426Z,61.50
2017-09-11T13:35:28.733Z,42.93
2017-09-11T13:37:57.948Z,65.43
2017-09-11T13:40:27.028Z,58.77
2017-09-11T13:42:55.872Z,62.77
2017-09-11T13:45:25.627Z,66.13
2017-09-11T13:47:54.523Z,45.10
2017-09-11T13:50:22.752Z,25.10
2017-09-11T13:52:52.426Z,25.60
2017-09-11T13:55:21.250Z,34.53
2017-09-11T13:57:50.079Z,23.30
2017-09-11T14:00:22.696Z,24.50
2017-09-11T14:02:53.365Z,21.87
2017-09-11T14:05:22.817Z,20.20
2017-09-11T14:07:51.480Z,28.90
2017-09-11T14:10:21.476Z,27.07
2017-09-11T14:12:52.204Z,23.07
2017-09-11T14:15:21.871Z,28.40
2017-09-11T14:17:51.587Z,24.93
2017-09-11T14:20:21.223Z,29.27
2017-09-11T14:22:51.295Z,23.37
2017-09-11T14:25:20.414Z,23.77
2017-09-11T14:27:49.686Z,24.90
2017-09-11T14:30:19.177Z,22.07
2017-09-11T14:32:49.348Z,25.00
2017-09-11T14:35:21.910Z,29.30
2017-09-11T14:37:51.674Z,29.53
2017-09-11T14:40:21.653Z,25.97
2017-09-11T14:42:49.802Z,24.97
2017-09-11T14:45:18.559Z,28.87
2017-09-11T14:47:47.582Z,25.50
2017-09-11T14:50:16.599Z,18.70
2017-09-11T14:52:44.876Z,20.57
2017-09-11T14:55:13.312Z,21.23
2017-09-11T14:57:43.281Z,18.13
2017-09-11T15:00:12.502Z,16.20
2017-09-11T15:02:43.815Z,16.90
2017-09-11T15:05:13.205Z,41.83
2017-09-11T15:07:45.956Z,25.43
2017-09-11T15:10:15.690Z,34.50
2017-09-11T15:12:43.838Z,25.07
2017-09-11T15:15:13.330Z,18.10
2017-09-11T15:17:42.744Z,16.23
2017-09-11T15:20:14.320Z,16.60
2017-09-11T15:22:43.700Z,14.93
2017-09-11T15:25:13.477Z,12.30
2017-09-11T15:27:42.537Z,9.87
2017-09-11T15:30:11.498Z,9.80
2017-09-11T15:32:40.188Z,10.03
2017-09-11T15:35:08.418Z,9.43
2017-09-11T15:37:37.534Z,8.93
2017-09-11T15:40:09.768Z,9.17
2017-09-11T15:42:37.794Z,9.47
2017-09-11T15:45:06.868Z,8.67
2017-09-11T15:47:37.391Z,7.80
2017-09-11T15:50:05.398Z,7.53
2017-09-11T15:52:34.384Z,11.37
2017-09-11T15:55:03.408Z,6.90
2017-09-11T15:57:31.681Z,7.60
2017-09-11T16:00:00.097Z,10.53
2017-09-11T16:02:28.035Z,7.30
2017-09-11T16:04:57.013Z,7.10
2017-09-11T16:07:26.008Z,7.10
2017-09-11T16:09:55.205Z,7.47
2017-09-11T16:12:23.416Z,7.67
2017-09-11T16:14:53.416Z,8.70
2017-09-11T16:17:22.562Z,9.27
2017-09-11T16:19:50.856Z,9.83
2017-09-11T16:22:19.217Z,9.43
2017-09-11T16:24:48.160Z,10.17
2017-09-11T16:27:17.841Z,11.27
2017-09-11T16:29:46.371Z,10.70
2017-09-11T16:32:14.609Z,10.43
2017-09-11T16:34:43.689Z,13.37
2017-09-11T16:37:13.618Z,9.80
2017-09-11T16:39:42.682Z,11.60
2017-09-11T16:42:12.108Z,10.37
2017-09-11T16:44:41.095Z,11.80
2017-09-11T16:47:10.852Z,13.93
2017-09-11T16:49:39.438Z,14.63
2017-09-11T16:52:09.059Z,13.43
2017-09-11T16:55:31.165Z,13.93
2017-09-11T16:58:00.742Z,14.27
2017-09-11T17:00:30.267Z,16.10
2017-09-11T17:02:58.406Z,17.63
2017-09-11T17:05:27.214Z,16.87
2017-09-11T17:07:55.231Z,12.57
2017-09-11T17:10:24.757Z,14.00
2017-09-11T17:12:53.622Z,12.07
2017-09-11T17:15:22.836Z,12.17
2017-09-11T17:17:52.523Z,14.97
2017-09-11T17:20:21.626Z,12.73
2017-09-11T17:22:50.082Z,11.80
2017-09-11T17:25:19.417Z,12.03
2017-09-11T17:27:48.693Z,12.43
2017-09-11T17:30:19.223Z,10.97
2017-09-11T17:32:47.361Z,11.10
2017-09-11T17:35:17.227Z,10.63
2017-09-11T17:37:46.050Z,12.33
2017-09-11T17:40:15.199Z,10.97
2017-09-11T17:42:43.264Z,9.77
2017-09-11T17:45:12.171Z,10.97
2017-09-11T17:47:41.487Z,9.93
2017-09-11T17:50:10.748Z,9.00
2017-09-11T17:52:39.428Z,9.97
2017-09-11T17:55:08.219Z,9.87
2017-09-11T17:57:38.949Z,7.33
2017-09-11T18:00:09.296Z,7.43
2017-09-11T18:02:39.044Z,5.53
2017-09-11T18:05:09.204Z,7.03
2017-09-11T18:07:38.116Z,5.67
2017-09-11T18:10:08.651Z,7.10
2017-09-11T18:12:36.810Z,4.70
2017-09-11T18:15:05.504Z,6.73
2017-09-11T18:17:34.276Z,4.20
2017-09-11T18:20:05.647Z,6.37
2017-09-11T18:22:34.693Z,5.90
2017-09-11T18:25:03.186Z,4.33
2017-09-11T18:27:32.165Z,3.47
2017-09-11T18:30:02.796Z,5.10
2017-09-11T18:32:31.697Z,4.43
2017-09-11T18:35:01.490Z,3.73
2017-09-11T18:37:31.429Z,3.57
2017-09-11T18:40:00.307Z,4.73
2017-09-11T18:42:29.200Z,5.63
2017-09-11T18:44:59.019Z,5.03
2017-09-11T18:47:30.168Z,3.60
2017-09-11T18:49:59.183Z,4.50
2017-09-11T18:52:27.282Z,5.27
2017-09-11T18:54:56.479Z,6.10
2017-09-11T18:57:27.235Z,4.10
2017-09-11T18:59:56.154Z,7.10
2017-09-11T19:02:26.369Z,5.30
2017-09-11T19:04:54.580Z,4.77
2017-09-11T19:07:23.465Z,6.50
2017-09-11T19:09:51.699Z,3.53
2017-09-11T19:12:22.391Z,4.83
2017-09-11T19:14:50.893Z,3.33
2017-09-11T19:17:20.414Z,3.40
2017-09-11T19:32:43.923Z,5.37
2017-09-11T19:35:12.013Z,3.10
2017-09-11T19:37:41.219Z,3.07
2017-09-11T19:40:10.451Z,2.30
2017-09-11T19:42:39.874Z,3.60
2017-09-11T19:45:08.425Z,2.10
2017-09-11T19:47:36.853Z,2.13
2017-09-11T19:50:06.943Z,2.20
2017-09-11T19:52:36.140Z,2.30
2017-09-11T19:55:07.648Z,3.27
2017-09-11T19:57:35.647Z,2.10
2017-09-11T20:00:08.134Z,2.17
2017-09-11T20:02:38.428Z,2.73
2017-09-11T20:05:07.749Z,2.40
2017-09-11T20:07:37.583Z,1.87
2017-09-11T20:10:08.226Z,2.50
2017-09-11T20:12:37.310Z,3.37
2017-09-11T20:15:10.133Z,2.10
2017-09-11T20:17:38.455Z,1.77
2017-09-11T20:20:08.416Z,2.70
2017-09-11T20:22:37.676Z,1.50
2017-09-11T20:34:49.506Z,1.90
2017-09-11T20:37:17.958Z,2.33
2017-09-11T20:39:48.063Z,1.90
2017-09-11T20:42:18.077Z,4.37
2017-09-11T20:44:46.265Z,1.73
2017-09-11T20:47:14.316Z,3.97
2017-09-11T20:49:42.748Z,2.30
2017-09-11T20:52:13.348Z,2.63
2017-09-11T20:54:42.579Z,2.90
2017-09-11T20:57:14.403Z,1.80
2017-09-11T20:59:43.396Z,2.10
2017-09-11T21:02:12.559Z,3.23
2017-09-11T21:04:43.843Z,1.77
2017-09-11T21:07:12.010Z,1.70
2017-09-11T21:09:41.601Z,2.97
2017-09-11T21:12:10.287Z,4.30
2017-09-11T21:14:38.504Z,1.70
2017-09-11T21:17:06.047Z,1.80
2017-09-11T21:19:33.615Z,1.70
2017-09-11T21:22:02.326Z,1.80
2017-09-11T21:24:30.612Z,1.93
2017-09-11T21:26:58.933Z,2.00
2017-09-11T21:29:28.855Z,1.83
2017-09-11T21:31:57.735Z,1.83
2017-09-11T21:34:27.233Z,1.70
2017-09-11T21:36:56.275Z,2.57
2017-09-11T21:39:26.120Z,1.50
2017-09-11T21:41:58.404Z,2.60
2017-09-11T21:44:29.563Z,2.03
2017-09-11T21:47:01.564Z,2.17
2017-09-11T21:49:31.808Z,1.87
2017-09-11T21:52:00.836Z,2.20
2017-09-11T21:54:30.137Z,3.00
2017-09-11T21:57:01.651Z,1.80
2017-09-11T21:59:30.705Z,2.47
2017-09-11T22:02:06.832Z,1.90
2017-09-11T22:07:18.360Z,1.80
2017-09-11T22:09:49.424Z,1.70
2017-09-11T22:12:20.542Z,1.80
2017-09-11T22:14:49.708Z,1.50
2017-09-11T22:17:20.654Z,2.47
2017-09-11T22:19:50.691Z,1.87
2017-09-11T22:22:19.757Z,1.27
2017-09-11T22:24:47.866Z,2.70
2017-09-11T22:27:18.345Z,1.40
2017-09-11T22:29:47.577Z,1.67
2017-09-11T22:32:16.983Z,1.17
2017-09-11T22:35:00.098Z,1.50
2017-09-11T22:37:35.940Z,1.47
2017-09-11T22:40:16.517Z,1.73
2017-09-11T22:42:57.932Z,1.40
2017-09-11T22:48:21.640Z,1.53
2017-09-11T22:51:05.822Z,1.70
2017-09-11T22:53:41.738Z,1.20
2017-09-11T22:56:11.583Z,2.80
2017-09-11T22:58:40.617Z,1.47
2017-09-11T23:01:10.157Z,1.43
2017-09-11T23:03:38.850Z,1.67
2017-09-11T23:06:07.047Z,1.73
2017-09-11T23:08:35.365Z,1.73
2017-09-11T23:11:05.118Z,2.10
2017-09-11T23:13:33.896Z,2.67
2017-09-11T23:16:04.674Z,3.37
2017-09-11T23:18:35.146Z,2.30
2017-09-11T23:21:04.786Z,3.97
2017-09-11T23:23:32.973Z,2.13
2017-09-11T23:26:02.331Z,1.80
2017-09-11T23:28:32.416Z,5.03
2017-09-11T23:31:03.904Z,1.80
2017-09-11T23:33:31.870Z,1.80
2017-09-11T23:36:01.282Z,1.80
2017-09-11T23:38:30.531Z,3.70
2017-09-11T23:40:59.090Z,1.90
2017-09-11T23:43:28.241Z,1.40
2017-09-11T23:45:57.124Z,1.90
2017-09-11T23:48:27.413Z,2.40
2017-09-11T23:50:55.603Z,1.90
2017-09-11T23:53:23.689Z,2.30
2017-09-11T23:55:52.686Z,2.53
2017-09-11T23:58:22.294Z,1.90
